sensor_id;sensor_type;location;lat;lon;timestamp;temperature;humidity
24250;DHT22;12379;49.820;8.648;2023-08-30T00:00:54;14.30;99.90
24250;DHT22;12379;49.820;8.648;2023-08-30T00:03:20;14.30;99.90
24250;DHT22;12379;49.820;8.648;2023-08-30T00:05:45;14.30;99.90
24250;DHT22;12379;49.820;8.648;2023-08-30T00:08:11;14.30;99.90
24250;DHT22;12379;49.820;8.648;2023-08-30T00:10:38;14.30;99.90
24250;DHT22;12379;49.820;8.648;2023-08-30T00:13:04;14.40;99.90
24250;DHT22;12379;49.820;8.648;2023-08-30T00:15:29;14.40;99.90
24250;DHT22;12379;49.820;8.648;2023-08-30T00:17:55;14.30;99.90
24250;DHT22;12379;49.820;8.648;2023-08-30T00:20:21;14.30;99.90
24250;DHT22;12379;49.820;8.648;2023-08-30T00:22:47;14.30;99.90
24250;DHT22;12379;49.820;8.648;2023-08-30T00:25:14;14.30;99.90
24250;DHT22;12379;49.820;8.648;2023-08-30T00:27:39;14.30;99.90
24250;DHT22;12379;49.820;8.648;2023-08-30T00:30:05;14.30;99.90
24250;DHT22;12379;49.820;8.648;2023-08-30T00:32:33;14.20;99.90
24250;DHT22;12379;49.820;8.648;2023-08-30T00:34:59;14.20;99.90
24250;DHT22;12379;49.820;8.648;2023-08-30T00:37:24;14.20;99.90
24250;DHT22;12379;49.820;8.648;2023-08-30T00:39:50;14.20;99.90
24250;DHT22;12379;49.820;8.648;2023-08-30T00:42:15;14.30;99.90
24250;DHT22;12379;49.820;8.648;2023-08-30T00:44:41;14.30;99.90
24250;DHT22;12379;49.820;8.648;2023-08-30T00:47:06;14.30;99.90
24250;DHT22;12379;49.820;8.648;2023-08-30T00:49:32;14.30;99.90
24250;DHT22;12379;49.820;8.648;2023-08-30T00:52:02;14.30;99.90
24250;DHT22;12379;49.820;8.648;2023-08-30T00:54:28;14.30;99.90
24250;DHT22;12379;49.820;8.648;2023-08-30T00:56:54;14.30;99.90
24250;DHT22;12379;49.820;8.648;2023-08-30T00:59:21;14.30;99.90
24250;DHT22;12379;49.820;8.648;2023-08-30T01:01:47;14.30;99.90
24250;DHT22;12379;49.820;8.648;2023-08-30T01:04:13;14.40;99.90
24250;DHT22;12379;49.820;8.648;2023-08-30T01:06:39;14.30;99.90
24250;DHT22;12379;49.820;8.648;2023-08-30T01:09:05;14.30;99.90
24250;DHT22;12379;49.820;8.648;2023-08-30T01:11:40;14.40;99.90
24250;DHT22;12379;49.820;8.648;2023-08-30T01:14:18;14.40;99.90
24250;DHT22;12379;49.820;8.648;2023-08-30T01:16:46;14.50;99.90
24250;DHT22;12379;49.820;8.648;2023-08-30T01:19:38;14.50;99.90
24250;DHT22;12379;49.820;8.648;2023-08-30T01:24:45;14.70;99.90
24250;DHT22;12379;49.820;8.648;2023-08-30T01:27:15;14.70;99.90
24250;DHT22;12379;49.820;8.648;2023-08-30T01:29:44;14.70;99.90
24250;DHT22;12379;49.820;8.648;2023-08-30T01:32:10;14.70;99.90
24250;DHT22;12379;49.820;8.648;2023-08-30T01:34:37;14.70;99.90
24250;DHT22;12379;49.820;8.648;2023-08-30T01:37:06;14.70;99.90
24250;DHT22;12379;49.820;8.648;2023-08-30T01:39:34;14.70;99.90
24250;DHT22;12379;49.820;8.648;2023-08-30T01:42:01;14.70;99.90
24250;DHT22;12379;49.820;8.648;2023-08-30T01:44:29;14.70;99.90
24250;DHT22;12379;49.820;8.648;2023-08-30T01:46:56;14.70;99.90
24250;DHT22;12379;49.820;8.648;2023-08-30T01:49:24;14.60;99.90
24250;DHT22;12379;49.820;8.648;2023-08-30T01:51:50;14.60;99.90
24250;DHT22;12379;49.820;8.648;2023-08-30T01:54:18;14.60;99.90
24250;DHT22;12379;49.820;8.648;2023-08-30T01:56:44;14.60;99.90
24250;DHT22;12379;49.820;8.648;2023-08-30T01:59:10;14.60;99.90
24250;DHT22;12379;49.820;8.648;2023-08-30T02:01:36;14.60;99.90
24250;DHT22;12379;49.820;8.648;2023-08-30T02:04:02;14.60;99.90
24250;DHT22;12379;49.820;8.648;2023-08-30T02:06:33;14.60;99.90
24250;DHT22;12379;49.820;8.648;2023-08-30T02:09:09;14.60;99.90
24250;DHT22;12379;49.820;8.648;2023-08-30T02:11:38;14.60;99.90
24250;DHT22;12379;49.820;8.648;2023-08-30T02:14:05;14.60;99.90
24250;DHT22;12379;49.820;8.648;2023-08-30T02:16:33;14.60;99.90
24250;DHT22;12379;49.820;8.648;2023-08-30T02:18:59;14.50;99.90
24250;DHT22;12379;49.820;8.648;2023-08-30T02:21:24;14.50;99.90
24250;DHT22;12379;49.820;8.648;2023-08-30T02:23:52;14.40;99.90
24250;DHT22;12379;49.820;8.648;2023-08-30T02:26:20;14.40;99.90
24250;DHT22;12379;49.820;8.648;2023-08-30T02:28:46;14.40;99.90
24250;DHT22;12379;49.820;8.648;2023-08-30T02:31:12;14.50;99.90
24250;DHT22;12379;49.820;8.648;2023-08-30T02:33:37;14.50;99.90
24250;DHT22;12379;49.820;8.648;2023-08-30T02:36:03;14.60;99.90
24250;DHT22;12379;49.820;8.648;2023-08-30T02:38:29;14.60;99.90
24250;DHT22;12379;49.820;8.648;2023-08-30T02:40:55;14.60;99.90
24250;DHT22;12379;49.820;8.648;2023-08-30T02:43:21;14.70;99.90
24250;DHT22;12379;49.820;8.648;2023-08-30T02:45:47;14.70;99.90
24250;DHT22;12379;49.820;8.648;2023-08-30T02:48:13;14.80;99.90
24250;DHT22;12379;49.820;8.648;2023-08-30T02:50:39;14.80;99.90
24250;DHT22;12379;49.820;8.648;2023-08-30T02:53:05;14.90;99.90
24250;DHT22;12379;49.820;8.648;2023-08-30T02:55:34;14.90;99.90
24250;DHT22;12379;49.820;8.648;2023-08-30T02:57:59;14.90;99.90
24250;DHT22;12379;49.820;8.648;2023-08-30T03:00:25;14.90;99.90
24250;DHT22;12379;49.820;8.648;2023-08-30T03:02:50;14.90;99.90
24250;DHT22;12379;49.820;8.648;2023-08-30T03:05:16;14.90;99.90
24250;DHT22;12379;49.820;8.648;2023-08-30T03:07:42;14.90;99.90
24250;DHT22;12379;49.820;8.648;2023-08-30T03:10:08;15.00;99.90
24250;DHT22;12379;49.820;8.648;2023-08-30T03:12:33;15.00;99.90
24250;DHT22;12379;49.820;8.648;2023-08-30T03:14:59;15.00;99.90
24250;DHT22;12379;49.820;8.648;2023-08-30T03:17:25;15.00;99.90
24250;DHT22;12379;49.820;8.648;2023-08-30T03:19:54;14.90;99.90
24250;DHT22;12379;49.820;8.648;2023-08-30T03:22:19;14.90;99.90
24250;DHT22;12379;49.820;8.648;2023-08-30T03:24:45;14.90;99.90
24250;DHT22;12379;49.820;8.648;2023-08-30T03:27:10;14.90;99.90
24250;DHT22;12379;49.820;8.648;2023-08-30T03:29:36;14.90;99.90
24250;DHT22;12379;49.820;8.648;2023-08-30T03:32:02;14.90;99.90
24250;DHT22;12379;49.820;8.648;2023-08-30T03:34:27;14.90;99.90
24250;DHT22;12379;49.820;8.648;2023-08-30T03:36:53;15.00;99.90
24250;DHT22;12379;49.820;8.648;2023-08-30T03:39:20;15.00;99.90
24250;DHT22;12379;49.820;8.648;2023-08-30T03:41:46;14.90;99.90
24250;DHT22;12379;49.820;8.648;2023-08-30T03:44:11;14.80;99.90
24250;DHT22;12379;49.820;8.648;2023-08-30T03:46:37;14.80;99.90
24250;DHT22;12379;49.820;8.648;2023-08-30T03:49:03;14.80;99.90
24250;DHT22;12379;49.820;8.648;2023-08-30T03:51:29;14.80;99.90
24250;DHT22;12379;49.820;8.648;2023-08-30T03:53:54;14.90;99.90
24250;DHT22;12379;49.820;8.648;2023-08-30T03:56:28;14.80;99.90
24250;DHT22;12379;49.820;8.648;2023-08-30T03:58:53;14.90;99.90
24250;DHT22;12379;49.820;8.648;2023-08-30T04:01:19;14.90;99.90
24250;DHT22;12379;49.820;8.648;2023-08-30T04:03:44;14.90;99.90
24250;DHT22;12379;49.820;8.648;2023-08-30T04:06:10;14.80;99.90
24250;DHT22;12379;49.820;8.648;2023-08-30T04:08:35;14.80;99.90
24250;DHT22;12379;49.820;8.648;2023-08-30T04:11:01;14.70;99.90
24250;DHT22;12379;49.820;8.648;2023-08-30T04:13:27;14.70;99.90
24250;DHT22;12379;49.820;8.648;2023-08-30T04:15:53;14.70;99.90
24250;DHT22;12379;49.820;8.648;2023-08-30T04:18:18;14.70;99.90
24250;DHT22;12379;49.820;8.648;2023-08-30T04:20:45;14.80;99.90
24250;DHT22;12379;49.820;8.648;2023-08-30T04:23:11;14.80;99.90
24250;DHT22;12379;49.820;8.648;2023-08-30T04:25:37;14.80;99.90
24250;DHT22;12379;49.820;8.648;2023-08-30T04:28:02;14.80;99.90
24250;DHT22;12379;49.820;8.648;2023-08-30T04:30:28;14.80;99.90
24250;DHT22;12379;49.820;8.648;2023-08-30T04:32:54;14.80;99.90
24250;DHT22;12379;49.820;8.648;2023-08-30T04:35:19;14.80;99.90
24250;DHT22;12379;49.820;8.648;2023-08-30T04:37:45;14.80;99.90
24250;DHT22;12379;49.820;8.648;2023-08-30T04:40:11;14.80;99.90
24250;DHT22;12379;49.820;8.648;2023-08-30T04:42:37;14.80;99.90
24250;DHT22;12379;49.820;8.648;2023-08-30T04:45:03;14.90;99.90
24250;DHT22;12379;49.820;8.648;2023-08-30T04:47:29;14.80;99.90
24250;DHT22;12379;49.820;8.648;2023-08-30T04:49:55;14.80;99.90
24250;DHT22;12379;49.820;8.648;2023-08-30T04:52:21;14.80;99.90
24250;DHT22;12379;49.820;8.648;2023-08-30T04:54:46;14.70;99.90
24250;DHT22;12379;49.820;8.648;2023-08-30T04:57:16;14.70;99.90
24250;DHT22;12379;49.820;8.648;2023-08-30T04:59:43;14.70;99.90
24250;DHT22;12379;49.820;8.648;2023-08-30T05:02:08;14.70;99.90
24250;DHT22;12379;49.820;8.648;2023-08-30T05:04:34;14.80;99.90
24250;DHT22;12379;49.820;8.648;2023-08-30T05:07:00;14.80;99.90
24250;DHT22;12379;49.820;8.648;2023-08-30T05:09:25;14.80;99.90
24250;DHT22;12379;49.820;8.648;2023-08-30T05:11:52;14.90;99.90
24250;DHT22;12379;49.820;8.648;2023-08-30T05:14:19;14.90;99.90
24250;DHT22;12379;49.820;8.648;2023-08-30T05:16:44;15.00;99.90
24250;DHT22;12379;49.820;8.648;2023-08-30T05:19:10;15.00;99.90
24250;DHT22;12379;49.820;8.648;2023-08-30T05:21:35;15.10;99.90
24250;DHT22;12379;49.820;8.648;2023-08-30T05:24:01;15.10;99.90
24250;DHT22;12379;49.820;8.648;2023-08-30T05:26:27;15.10;99.90
24250;DHT22;12379;49.820;8.648;2023-08-30T05:28:53;15.10;99.90
24250;DHT22;12379;49.820;8.648;2023-08-30T05:31:19;15.20;99.90
24250;DHT22;12379;49.820;8.648;2023-08-30T05:33:44;15.20;99.90
24250;DHT22;12379;49.820;8.648;2023-08-30T05:36:10;15.30;99.90
24250;DHT22;12379;49.820;8.648;2023-08-30T05:38:35;15.30;99.90
24250;DHT22;12379;49.820;8.648;2023-08-30T05:41:01;15.40;99.90
24250;DHT22;12379;49.820;8.648;2023-08-30T05:43:26;15.40;99.90
24250;DHT22;12379;49.820;8.648;2023-08-30T05:45:52;15.50;99.90
24250;DHT22;12379;49.820;8.648;2023-08-30T05:48:17;15.60;99.90
24250;DHT22;12379;49.820;8.648;2023-08-30T05:50:43;15.70;99.90
24250;DHT22;12379;49.820;8.648;2023-08-30T05:53:10;15.70;99.90
24250;DHT22;12379;49.820;8.648;2023-08-30T05:55:36;15.80;99.90
24250;DHT22;12379;49.820;8.648;2023-08-30T05:58:02;15.80;99.90
24250;DHT22;12379;49.820;8.648;2023-08-30T06:00:28;16.00;99.90
24250;DHT22;12379;49.820;8.648;2023-08-30T06:02:54;16.00;99.90
24250;DHT22;12379;49.820;8.648;2023-08-30T06:05:19;16.10;99.90
24250;DHT22;12379;49.820;8.648;2023-08-30T06:07:45;16.20;99.90
24250;DHT22;12379;49.820;8.648;2023-08-30T06:10:10;16.30;99.90
24250;DHT22;12379;49.820;8.648;2023-08-30T06:12:36;16.40;99.90
24250;DHT22;12379;49.820;8.648;2023-08-30T06:15:02;16.50;99.90
24250;DHT22;12379;49.820;8.648;2023-08-30T06:17:29;16.50;99.90
24250;DHT22;12379;49.820;8.648;2023-08-30T06:19:54;16.60;99.90
24250;DHT22;12379;49.820;8.648;2023-08-30T06:22:20;16.50;99.90
24250;DHT22;12379;49.820;8.648;2023-08-30T06:24:45;16.40;99.90
24250;DHT22;12379;49.820;8.648;2023-08-30T06:27:14;16.50;99.90
24250;DHT22;12379;49.820;8.648;2023-08-30T06:29:39;16.60;99.90
24250;DHT22;12379;49.820;8.648;2023-08-30T06:32:05;16.60;99.90
24250;DHT22;12379;49.820;8.648;2023-08-30T06:34:31;16.60;99.90
24250;DHT22;12379;49.820;8.648;2023-08-30T06:36:56;16.70;99.90
24250;DHT22;12379;49.820;8.648;2023-08-30T06:39:22;16.60;99.90
24250;DHT22;12379;49.820;8.648;2023-08-30T06:41:48;16.70;99.90
24250;DHT22;12379;49.820;8.648;2023-08-30T06:44:13;16.80;99.90
24250;DHT22;12379;49.820;8.648;2023-08-30T06:46:39;16.80;99.90
24250;DHT22;12379;49.820;8.648;2023-08-30T06:49:05;16.90;99.90
24250;DHT22;12379;49.820;8.648;2023-08-30T06:51:31;17.00;99.90
24250;DHT22;12379;49.820;8.648;2023-08-30T06:53:56;17.30;99.90
24250;DHT22;12379;49.820;8.648;2023-08-30T06:56:26;17.70;99.90
24250;DHT22;12379;49.820;8.648;2023-08-30T06:58:51;17.80;99.90
24250;DHT22;12379;49.820;8.648;2023-08-30T07:01:17;17.90;99.90
24250;DHT22;12379;49.820;8.648;2023-08-30T07:03:42;18.10;99.90
24250;DHT22;12379;49.820;8.648;2023-08-30T07:06:09;18.40;99.90
24250;DHT22;12379;49.820;8.648;2023-08-30T07:08:35;18.90;99.90
24250;DHT22;12379;49.820;8.648;2023-08-30T07:11:00;18.80;99.90
24250;DHT22;12379;49.820;8.648;2023-08-30T07:13:26;19.00;99.90
24250;DHT22;12379;49.820;8.648;2023-08-30T07:15:51;19.20;99.90
24250;DHT22;12379;49.820;8.648;2023-08-30T07:18:17;19.40;99.90
24250;DHT22;12379;49.820;8.648;2023-08-30T07:20:43;19.40;99.90
24250;DHT22;12379;49.820;8.648;2023-08-30T07:23:09;19.70;99.90
24250;DHT22;12379;49.820;8.648;2023-08-30T07:25:37;19.70;99.90
24250;DHT22;12379;49.820;8.648;2023-08-30T07:28:03;19.90;99.90
24250;DHT22;12379;49.820;8.648;2023-08-30T07:30:29;20.10;99.90
24250;DHT22;12379;49.820;8.648;2023-08-30T07:32:55;20.20;99.90
24250;DHT22;12379;49.820;8.648;2023-08-30T07:35:20;20.30;99.90
24250;DHT22;12379;49.820;8.648;2023-08-30T07:37:47;20.50;99.90
24250;DHT22;12379;49.820;8.648;2023-08-30T07:40:12;20.40;99.90
24250;DHT22;12379;49.820;8.648;2023-08-30T07:42:38;20.70;99.90
24250;DHT22;12379;49.820;8.648;2023-08-30T07:45:04;20.80;99.90
24250;DHT22;12379;49.820;8.648;2023-08-30T07:47:30;20.60;99.90
24250;DHT22;12379;49.820;8.648;2023-08-30T07:49:55;21.00;99.90
24250;DHT22;12379;49.820;8.648;2023-08-30T07:52:21;21.20;99.90
24250;DHT22;12379;49.820;8.648;2023-08-30T07:54:47;21.30;99.90
24250;DHT22;12379;49.820;8.648;2023-08-30T07:57:12;21.10;99.90
24250;DHT22;12379;49.820;8.648;2023-08-30T07:59:38;21.20;99.90
24250;DHT22;12379;49.820;8.648;2023-08-30T08:02:05;21.20;99.90
24250;DHT22;12379;49.820;8.648;2023-08-30T08:04:32;21.40;99.90
24250;DHT22;12379;49.820;8.648;2023-08-30T08:06:58;21.50;99.90
24250;DHT22;12379;49.820;8.648;2023-08-30T08:09:23;21.30;99.90
24250;DHT22;12379;49.820;8.648;2023-08-30T08:11:49;21.40;99.90
24250;DHT22;12379;49.820;8.648;2023-08-30T08:14:15;21.30;99.90
24250;DHT22;12379;49.820;8.648;2023-08-30T08:16:40;21.30;99.90
24250;DHT22;12379;49.820;8.648;2023-08-30T08:19:06;21.20;99.90
24250;DHT22;12379;49.820;8.648;2023-08-30T08:21:33;22.10;99.90
24250;DHT22;12379;49.820;8.648;2023-08-30T08:23:58;22.50;99.90
24250;DHT22;12379;49.820;8.648;2023-08-30T08:26:24;21.90;99.90
24250;DHT22;12379;49.820;8.648;2023-08-30T08:28:50;22.10;99.90
24250;DHT22;12379;49.820;8.648;2023-08-30T08:31:16;22.60;99.90
24250;DHT22;12379;49.820;8.648;2023-08-30T08:33:43;23.00;99.90
24250;DHT22;12379;49.820;8.648;2023-08-30T08:36:09;23.10;99.90
24250;DHT22;12379;49.820;8.648;2023-08-30T08:38:34;22.60;99.90
24250;DHT22;12379;49.820;8.648;2023-08-30T08:41:05;22.20;99.90
24250;DHT22;12379;49.820;8.648;2023-08-30T08:43:32;22.20;99.90
24250;DHT22;12379;49.820;8.648;2023-08-30T08:46:00;21.90;99.90
24250;DHT22;12379;49.820;8.648;2023-08-30T08:48:28;21.90;99.90
24250;DHT22;12379;49.820;8.648;2023-08-30T08:50:56;22.10;99.90
24250;DHT22;12379;49.820;8.648;2023-08-30T08:53:22;22.10;99.90
24250;DHT22;12379;49.820;8.648;2023-08-30T08:55:48;22.30;99.90
24250;DHT22;12379;49.820;8.648;2023-08-30T08:58:14;22.00;99.90
24250;DHT22;12379;49.820;8.648;2023-08-30T09:00:42;22.00;99.90
24250;DHT22;12379;49.820;8.648;2023-08-30T09:03:08;22.20;99.90
24250;DHT22;12379;49.820;8.648;2023-08-30T09:05:37;22.30;99.90
24250;DHT22;12379;49.820;8.648;2023-08-30T09:08:04;22.50;99.90
24250;DHT22;12379;49.820;8.648;2023-08-30T09:10:31;22.30;99.90
24250;DHT22;12379;49.820;8.648;2023-08-30T09:12:56;21.90;99.90
24250;DHT22;12379;49.820;8.648;2023-08-30T09:15:22;22.10;99.90
24250;DHT22;12379;49.820;8.648;2023-08-30T09:17:47;21.80;99.90
24250;DHT22;12379;49.820;8.648;2023-08-30T09:20:14;21.30;99.90
24250;DHT22;12379;49.820;8.648;2023-08-30T09:22:40;21.40;99.90
24250;DHT22;12379;49.820;8.648;2023-08-30T09:25:08;21.80;99.90
24250;DHT22;12379;49.820;8.648;2023-08-30T09:27:34;21.70;99.90
24250;DHT22;12379;49.820;8.648;2023-08-30T09:30:01;21.60;99.90
24250;DHT22;12379;49.820;8.648;2023-08-30T09:32:28;22.00;99.90
24250;DHT22;12379;49.820;8.648;2023-08-30T09:34:53;22.50;99.90
24250;DHT22;12379;49.820;8.648;2023-08-30T09:37:23;22.50;99.90
24250;DHT22;12379;49.820;8.648;2023-08-30T09:39:51;22.90;99.90
24250;DHT22;12379;49.820;8.648;2023-08-30T09:42:17;23.30;99.90
24250;DHT22;12379;49.820;8.648;2023-08-30T09:44:43;23.20;99.90
24250;DHT22;12379;49.820;8.648;2023-08-30T09:47:09;22.40;99.90
24250;DHT22;12379;49.820;8.648;2023-08-30T09:49:43;22.40;99.90
24250;DHT22;12379;49.820;8.648;2023-08-30T09:52:09;23.00;99.90
24250;DHT22;12379;49.820;8.648;2023-08-30T09:54:35;22.30;99.90
24250;DHT22;12379;49.820;8.648;2023-08-30T09:57:07;22.60;99.90
24250;DHT22;12379;49.820;8.648;2023-08-30T09:59:33;23.00;99.90
24250;DHT22;12379;49.820;8.648;2023-08-30T10:01:58;23.00;99.90
24250;DHT22;12379;49.820;8.648;2023-08-30T10:04:26;23.20;99.90
24250;DHT22;12379;49.820;8.648;2023-08-30T10:06:53;23.60;99.90
24250;DHT22;12379;49.820;8.648;2023-08-30T10:09:21;23.40;99.90
24250;DHT22;12379;49.820;8.648;2023-08-30T10:11:47;23.00;99.90
24250;DHT22;12379;49.820;8.648;2023-08-30T10:14:13;23.10;99.90
24250;DHT22;12379;49.820;8.648;2023-08-30T10:16:47;23.50;99.90
24250;DHT22;12379;49.820;8.648;2023-08-30T10:21:43;22.40;99.90
24250;DHT22;12379;49.820;8.648;2023-08-30T10:24:14;22.30;99.90
24250;DHT22;12379;49.820;8.648;2023-08-30T10:26:43;22.40;99.90
24250;DHT22;12379;49.820;8.648;2023-08-30T10:29:10;22.50;99.90
24250;DHT22;12379;49.820;8.648;2023-08-30T10:31:38;22.60;99.90
24250;DHT22;12379;49.820;8.648;2023-08-30T10:34:15;22.70;99.90
24250;DHT22;12379;49.820;8.648;2023-08-30T10:36:44;22.70;99.90
24250;DHT22;12379;49.820;8.648;2023-08-30T10:39:14;22.20;99.90
24250;DHT22;12379;49.820;8.648;2023-08-30T10:41:56;22.30;99.90
24250;DHT22;12379;49.820;8.648;2023-08-30T10:44:25;22.60;99.90
24250;DHT22;12379;49.820;8.648;2023-08-30T10:46:54;22.90;99.90
24250;DHT22;12379;49.820;8.648;2023-08-30T10:49:21;22.90;99.90
24250;DHT22;12379;49.820;8.648;2023-08-30T10:51:55;22.60;99.90
24250;DHT22;12379;49.820;8.648;2023-08-30T10:54:36;22.60;99.90
24250;DHT22;12379;49.820;8.648;2023-08-30T10:57:03;22.30;99.90
24250;DHT22;12379;49.820;8.648;2023-08-30T10:59:29;22.30;99.90
24250;DHT22;12379;49.820;8.648;2023-08-30T11:01:55;22.10;99.90
24250;DHT22;12379;49.820;8.648;2023-08-30T11:04:22;22.00;99.90
24250;DHT22;12379;49.820;8.648;2023-08-30T11:06:49;22.00;99.90
24250;DHT22;12379;49.820;8.648;2023-08-30T11:09:16;21.70;99.90
24250;DHT22;12379;49.820;8.648;2023-08-30T11:11:48;21.50;99.90
24250;DHT22;12379;49.820;8.648;2023-08-30T11:14:15;21.40;99.90
24250;DHT22;12379;49.820;8.648;2023-08-30T11:16:41;21.40;99.90
24250;DHT22;12379;49.820;8.648;2023-08-30T11:19:08;21.60;99.90
24250;DHT22;12379;49.820;8.648;2023-08-30T11:21:37;21.90;99.90
24250;DHT22;12379;49.820;8.648;2023-08-30T11:24:06;22.00;99.90
24250;DHT22;12379;49.820;8.648;2023-08-30T11:26:32;21.90;99.90
24250;DHT22;12379;49.820;8.648;2023-08-30T11:29:07;22.10;99.90
24250;DHT22;12379;49.820;8.648;2023-08-30T11:31:33;22.20;99.90
24250;DHT22;12379;49.820;8.648;2023-08-30T11:33:59;22.30;99.90
24250;DHT22;12379;49.820;8.648;2023-08-30T11:36:30;22.40;99.90
24250;DHT22;12379;49.820;8.648;2023-08-30T11:38:56;22.30;99.90
24250;DHT22;12379;49.820;8.648;2023-08-30T11:41:25;22.10;99.90
24250;DHT22;12379;49.820;8.648;2023-08-30T11:43:52;21.90;99.90
24250;DHT22;12379;49.820;8.648;2023-08-30T11:46:18;21.70;99.90
24250;DHT22;12379;49.820;8.648;2023-08-30T11:48:44;21.60;99.90
24250;DHT22;12379;49.820;8.648;2023-08-30T11:51:11;21.70;99.90
24250;DHT22;12379;49.820;8.648;2023-08-30T11:53:37;21.50;99.90
24250;DHT22;12379;49.820;8.648;2023-08-30T11:56:03;21.50;99.90
24250;DHT22;12379;49.820;8.648;2023-08-30T11:58:34;21.40;99.90
24250;DHT22;12379;49.820;8.648;2023-08-30T12:01:00;21.40;99.90
24250;DHT22;12379;49.820;8.648;2023-08-30T12:03:27;21.50;99.90
24250;DHT22;12379;49.820;8.648;2023-08-30T12:06:01;21.70;99.90
24250;DHT22;12379;49.820;8.648;2023-08-30T12:08:29;21.90;99.90
24250;DHT22;12379;49.820;8.648;2023-08-30T12:10:56;21.90;99.90
24250;DHT22;12379;49.820;8.648;2023-08-30T12:15:52;22.20;99.90
24250;DHT22;12379;49.820;8.648;2023-08-30T12:18:24;22.50;99.90
24250;DHT22;12379;49.820;8.648;2023-08-30T12:23:28;22.40;99.80
24250;DHT22;12379;49.820;8.648;2023-08-30T12:26:04;22.30;99.90
24250;DHT22;12379;49.820;8.648;2023-08-30T12:28:33;22.50;99.90
24250;DHT22;12379;49.820;8.648;2023-08-30T12:30:59;22.50;99.90
24250;DHT22;12379;49.820;8.648;2023-08-30T12:33:25;22.70;99.70
24250;DHT22;12379;49.820;8.648;2023-08-30T12:35:52;22.90;99.10
24250;DHT22;12379;49.820;8.648;2023-08-30T12:38:17;23.10;98.70
24250;DHT22;12379;49.820;8.648;2023-08-30T12:40:47;23.30;98.30
24250;DHT22;12379;49.820;8.648;2023-08-30T12:43:13;23.30;97.70
24250;DHT22;12379;49.820;8.648;2023-08-30T12:45:40;23.30;96.10
24250;DHT22;12379;49.820;8.648;2023-08-30T12:48:07;23.30;95.80
24250;DHT22;12379;49.820;8.648;2023-08-30T12:50:33;23.10;95.70
24250;DHT22;12379;49.820;8.648;2023-08-30T12:52:58;22.80;96.10
24250;DHT22;12379;49.820;8.648;2023-08-30T12:55:24;22.70;96.50
24250;DHT22;12379;49.820;8.648;2023-08-30T12:57:49;22.70;95.10
24250;DHT22;12379;49.820;8.648;2023-08-30T13:00:15;22.80;94.30
24250;DHT22;12379;49.820;8.648;2023-08-30T13:02:40;23.00;93.40
24250;DHT22;12379;49.820;8.648;2023-08-30T13:05:06;23.00;92.80
24250;DHT22;12379;49.820;8.648;2023-08-30T13:07:32;23.00;93.20
24250;DHT22;12379;49.820;8.648;2023-08-30T13:09:57;23.10;92.40
24250;DHT22;12379;49.820;8.648;2023-08-30T13:12:23;23.10;91.60
24250;DHT22;12379;49.820;8.648;2023-08-30T13:14:49;23.10;91.00
24250;DHT22;12379;49.820;8.648;2023-08-30T13:17:15;23.00;90.40
24250;DHT22;12379;49.820;8.648;2023-08-30T13:19:43;22.80;90.00
24250;DHT22;12379;49.820;8.648;2023-08-30T13:22:09;22.90;90.80
24250;DHT22;12379;49.820;8.648;2023-08-30T13:24:35;22.90;91.80
24250;DHT22;12379;49.820;8.648;2023-08-30T13:27:03;23.00;92.00
24250;DHT22;12379;49.820;8.648;2023-08-30T13:29:29;22.90;90.80
24250;DHT22;12379;49.820;8.648;2023-08-30T13:31:55;23.00;91.00
24250;DHT22;12379;49.820;8.648;2023-08-30T13:34:21;23.10;91.10
24250;DHT22;12379;49.820;8.648;2023-08-30T13:36:46;23.10;91.00
24250;DHT22;12379;49.820;8.648;2023-08-30T13:39:14;23.30;90.90
24250;DHT22;12379;49.820;8.648;2023-08-30T13:41:40;23.40;90.50
24250;DHT22;12379;49.820;8.648;2023-08-30T13:44:06;23.40;89.40
24250;DHT22;12379;49.820;8.648;2023-08-30T13:46:32;23.50;87.90
24250;DHT22;12379;49.820;8.648;2023-08-30T13:48:58;23.50;86.80
24250;DHT22;12379;49.820;8.648;2023-08-30T13:51:25;23.50;86.10
24250;DHT22;12379;49.820;8.648;2023-08-30T13:53:50;23.50;87.90
24250;DHT22;12379;49.820;8.648;2023-08-30T13:56:18;23.50;86.80
24250;DHT22;12379;49.820;8.648;2023-08-30T13:58:44;23.30;85.60
24250;DHT22;12379;49.820;8.648;2023-08-30T14:01:10;23.40;87.50
24250;DHT22;12379;49.820;8.648;2023-08-30T14:03:36;23.50;85.00
24250;DHT22;12379;49.820;8.648;2023-08-30T14:06:01;23.60;88.50
24250;DHT22;12379;49.820;8.648;2023-08-30T14:08:27;23.70;86.80
24250;DHT22;12379;49.820;8.648;2023-08-30T14:10:52;23.60;85.50
24250;DHT22;12379;49.820;8.648;2023-08-30T14:13:19;23.50;86.90
24250;DHT22;12379;49.820;8.648;2023-08-30T14:15:45;23.50;87.40
24250;DHT22;12379;49.820;8.648;2023-08-30T14:18:10;23.30;85.00
24250;DHT22;12379;49.820;8.648;2023-08-30T14:20:37;23.10;86.00
24250;DHT22;12379;49.820;8.648;2023-08-30T14:23:03;23.10;83.80
24250;DHT22;12379;49.820;8.648;2023-08-30T14:25:29;23.10;85.30
24250;DHT22;12379;49.820;8.648;2023-08-30T14:27:54;23.10;85.90
24250;DHT22;12379;49.820;8.648;2023-08-30T14:30:21;23.30;86.00
24250;DHT22;12379;49.820;8.648;2023-08-30T14:32:47;23.40;84.40
24250;DHT22;12379;49.820;8.648;2023-08-30T14:35:12;23.30;84.70
24250;DHT22;12379;49.820;8.648;2023-08-30T14:37:38;23.30;85.20
24250;DHT22;12379;49.820;8.648;2023-08-30T14:40:05;23.40;86.50
24250;DHT22;12379;49.820;8.648;2023-08-30T14:42:31;23.30;86.40
24250;DHT22;12379;49.820;8.648;2023-08-30T14:44:58;23.40;85.90
24250;DHT22;12379;49.820;8.648;2023-08-30T14:47:23;23.40;86.20
24250;DHT22;12379;49.820;8.648;2023-08-30T14:49:49;23.60;86.10
24250;DHT22;12379;49.820;8.648;2023-08-30T14:52:15;23.50;84.00
24250;DHT22;12379;49.820;8.648;2023-08-30T14:54:42;23.20;84.50
24250;DHT22;12379;49.820;8.648;2023-08-30T14:57:08;23.00;85.80
24250;DHT22;12379;49.820;8.648;2023-08-30T14:59:34;23.00;86.60
24250;DHT22;12379;49.820;8.648;2023-08-30T15:02:00;22.90;87.10
24250;DHT22;12379;49.820;8.648;2023-08-30T15:04:25;22.90;87.40
24250;DHT22;12379;49.820;8.648;2023-08-30T15:06:51;23.10;87.40
24250;DHT22;12379;49.820;8.648;2023-08-30T15:09:17;23.00;87.60
24250;DHT22;12379;49.820;8.648;2023-08-30T15:11:44;23.00;88.50
24250;DHT22;12379;49.820;8.648;2023-08-30T15:14:10;23.00;89.40
24250;DHT22;12379;49.820;8.648;2023-08-30T15:16:36;23.10;89.70
24250;DHT22;12379;49.820;8.648;2023-08-30T15:19:02;23.00;89.60
24250;DHT22;12379;49.820;8.648;2023-08-30T15:21:28;22.90;90.10
24250;DHT22;12379;49.820;8.648;2023-08-30T15:23:53;22.70;90.50
24250;DHT22;12379;49.820;8.648;2023-08-30T15:26:19;22.70;90.40
24250;DHT22;12379;49.820;8.648;2023-08-30T15:28:49;22.50;91.00
24250;DHT22;12379;49.820;8.648;2023-08-30T15:31:16;22.40;91.40
24250;DHT22;12379;49.820;8.648;2023-08-30T15:33:45;22.50;92.10
24250;DHT22;12379;49.820;8.648;2023-08-30T15:36:11;22.50;91.50